Etusivu
METAR-TAF:

METAR-TAF

Lentoasemat :

Öljynporauslautta

Norne Fpso, Norja

Leveyspiiri: 66-01-48N, Pituuspiiri: 008-04-48E, korkeus merenpinnasta: 10 m

Tämänhetkinen sää

Tämä raportti tehtiin 22 minuuttia sitten, kello 04.20 UTC
Tuuli 14 kn etelästä
Lämpötila 14°C
Kosteus 94%
Ilmanpaine 1006 hPa
Näkyvyys 10 km tai enemmän

METAR: ENNE 220420Z AUTO 17014KT 9999NDV FEW008/// 14/13 Q1006 W///S3

Aika: 06:42 (04:42 UTC)

Sääennuste

Tämä raportti tehtiin 17 tuntia ja 42 minuuttia sitten, kello 11.00 UTC
Ennuste voimassa 21. päivästä klo 12 UTC - 21. päivään klo 17 UTC
Tuuli 8 kn eri suunnista
Näkyvyys 10 km tai enemmän
Muutamia pilviä 800 ft:n korkeudessa
Hajanaisia pilviä 3000 ft:n korkeudessa
Ajoittain
21. päivästä klo 12 UTC - 21. päivään klo 13 UTC
Muutamia pilviä 3000 ft:n korkeudessa, Cumulonimbus.

TAF: ENNE 211100Z 2112/2117 VRB08KT 9999 FEW008 SCT030 TEMPO 2112/2113 FEW030CB

Säähavainnot ja -ennusteet yli 4000 lentoasemalta (METAR- ja TAF-raportit).

Käytössä olevat sääasemat on merkitty karttaan keltaisilla ja punaisilla pisteillä.

Aseta hiiri pisteen päälle nähdäksesi sääaseman nimen.

Klikkaa sitten nähdäksesi säähavainnot ja -ennusteet.

Kartan vaihtaminen: klikkaa mustalla rastilla varustettuja vihreitä pisteitä, niin voit zoomata sisään; viivalla varustettua vihreää pistettä, niin voit zoomata ulos tai vihreitä nuolia, niin pääset viereisille kartoille.


METAR-TAF: